Huron, SD (57350)

1:18 PM CST on December 10, 2016 (GMT -0600)
Huron Regional | | Change Station
Active Advisory: Winter Weather Advisory

Elev 1289 ft 44.39 °N, 98.23 °W | Updated 7 minutes ago

Snow
Snow
12 °F
Feels Like -4 °F
N
15
Wind Variable Wind from East

Today
High -- | Low -- °F
--% Chance of Precip.
Yesterday
High -- | Low -- °F
Precip. -- in
Pressure 30.15 in
Visibility 1.0 miles
Clouds Mostly Cloudy 1800 ft
Mostly Cloudy 2500 ft
Overcast 3300 ft
Windchill -4 °F
Dew Point 8 °F
Humidity 84%
Rainfall 0.19 in
Snow Depth Not available.
7:58 AM 4:53 PM
Waxing Gibbous, 85% visible
SPECI KHON 101911Z AUTO 10013KT 1SM -SN BR BKN018 BKN025 OVC033 M11/M13 A3015 RMK AO2 P0000 T11111133
Pressure 30.15 in
Visibility 1.0 miles
Clouds Mostly Cloudy 1800 ft
Mostly Cloudy 2500 ft
Overcast 3300 ft
Windchill -4 °F
Dew Point 8 °F
Humidity 84%
Rainfall 0.19 in
Snow Depth Not available.
7:58 AM 4:53 PM
Waxing Gibbous, 85% visible
SPECI KHON 101911Z AUTO 10013KT 1SM -SN BR BKN018 BKN025 OVC033 M11/M13 A3015 RMK AO2 P0000 T11111133

10-Day Weather Forecast

Almanac

Astronomy

Dec. 10, 2016 Rise Set
Actual Time
Civil Twilight
Nautical Twilight
Astronomical Twilight
Moon
Length of Visible Light
Length of Day
Tomorrow will be .
, % of the Moon is Illuminated

Today's Extremes

State Highs State Lows

Community

WunderPhotos

Upload Photos

1,956,627 photos uploaded!

WunderBlog® & News

Nearby

Air Quality

  Air Quality AQ Index Pollutant
Not available.

Snow Depth

Station Depth Elevation

Earthquake Activity

City Distance Mag. Time & Date
Minimum magnitude displayed is 2.5.

Coastal Water Temperatures

Place Temperature

Stations

Nearby Weather Stations

Station Location Temp. Windchill Dew Point Humidity Wind Precip. Elev Updated Type
                   

Watches & Warnings

Winter Weather Advisory
Issued: 9:52 AM CST Dec. 10, 2016 – National Weather Service

... Winter Weather Advisory remains in effect until 9 am CST
Sunday...

* timing... light to moderate snow will continue off and on
through Sunday morning.

* Accumulations... snowfall should average 3 to 5 inches.

* Visibility... the visibility will fall to around a half mile at
times.

Precautionary/preparedness actions...

A Winter Weather Advisory for snow means that periods of snow
will cause primarily travel difficulties. Be prepared for snow
covered roads and limited visibilities... and use caution while
driving.